sensor_id;sensor_type;location;lat;lon;timestamp;temperature;humidity
19279;DHT22;9773;47.062;15.446;2023-03-03T00:01:35;7.00;99.90
19279;DHT22;9773;47.062;15.446;2023-03-03T00:04:01;7.00;99.90
19279;DHT22;9773;47.062;15.446;2023-03-03T00:06:27;6.90;99.90
19279;DHT22;9773;47.062;15.446;2023-03-03T00:08:55;6.90;99.90
19279;DHT22;9773;47.062;15.446;2023-03-03T00:11:21;7.00;99.90
19279;DHT22;9773;47.062;15.446;2023-03-03T00:13:50;6.90;99.90
19279;DHT22;9773;47.062;15.446;2023-03-03T00:16:34;6.90;99.90
19279;DHT22;9773;47.062;15.446;2023-03-03T00:19:02;6.90;99.90
19279;DHT22;9773;47.062;15.446;2023-03-03T00:21:55;6.90;99.90
19279;DHT22;9773;47.062;15.446;2023-03-03T00:24:24;6.80;99.90
19279;DHT22;9773;47.062;15.446;2023-03-03T00:27:02;6.80;99.90
19279;DHT22;9773;47.062;15.446;2023-03-03T00:29:40;6.90;99.90
19279;DHT22;9773;47.062;15.446;2023-03-03T00:32:42;6.90;99.90
19279;DHT22;9773;47.062;15.446;2023-03-03T00:35:29;6.90;99.90
19279;DHT22;9773;47.062;15.446;2023-03-03T00:38:01;6.80;99.90
19279;DHT22;9773;47.062;15.446;2023-03-03T00:40:37;6.70;99.90
19279;DHT22;9773;47.062;15.446;2023-03-03T00:43:24;6.70;99.90
19279;DHT22;9773;47.062;15.446;2023-03-03T00:45:56;6.70;99.90
19279;DHT22;9773;47.062;15.446;2023-03-03T00:48:48;6.80;99.90
19279;DHT22;9773;47.062;15.446;2023-03-03T00:53:43;6.70;99.90
19279;DHT22;9773;47.062;15.446;2023-03-03T00:56:09;6.70;99.90
19279;DHT22;9773;47.062;15.446;2023-03-03T00:58:35;6.60;99.90
19279;DHT22;9773;47.062;15.446;2023-03-03T01:01:00;6.60;99.90
19279;DHT22;9773;47.062;15.446;2023-03-03T01:03:26;6.60;99.90
19279;DHT22;9773;47.062;15.446;2023-03-03T01:05:53;6.60;99.90
19279;DHT22;9773;47.062;15.446;2023-03-03T01:08:19;6.50;99.90
19279;DHT22;9773;47.062;15.446;2023-03-03T01:10:56;6.50;99.90
19279;DHT22;9773;47.062;15.446;2023-03-03T01:13:26;6.60;99.90
19279;DHT22;9773;47.062;15.446;2023-03-03T01:15:52;6.50;99.90
19279;DHT22;9773;47.062;15.446;2023-03-03T01:18:18;6.50;99.90
19279;DHT22;9773;47.062;15.446;2023-03-03T01:20:45;6.50;99.90
19279;DHT22;9773;47.062;15.446;2023-03-03T01:23:11;6.50;99.90
19279;DHT22;9773;47.062;15.446;2023-03-03T01:25:37;6.50;99.90
19279;DHT22;9773;47.062;15.446;2023-03-03T01:28:03;6.50;99.90
19279;DHT22;9773;47.062;15.446;2023-03-03T01:30:29;6.50;99.90
19279;DHT22;9773;47.062;15.446;2023-03-03T01:32:55;6.50;99.90
19279;DHT22;9773;47.062;15.446;2023-03-03T01:35:22;6.50;99.90
19279;DHT22;9773;47.062;15.446;2023-03-03T01:37:47;6.50;99.90
19279;DHT22;9773;47.062;15.446;2023-03-03T01:40:21;6.40;99.90
19279;DHT22;9773;47.062;15.446;2023-03-03T01:42:47;6.30;99.90
19279;DHT22;9773;47.062;15.446;2023-03-03T01:45:24;6.40;99.90
19279;DHT22;9773;47.062;15.446;2023-03-03T01:48:08;6.30;99.90
19279;DHT22;9773;47.062;15.446;2023-03-03T01:50:43;6.40;99.90
19279;DHT22;9773;47.062;15.446;2023-03-03T01:53:27;6.40;99.90
19279;DHT22;9773;47.062;15.446;2023-03-03T01:55:55;6.40;99.90
19279;DHT22;9773;47.062;15.446;2023-03-03T01:58:26;6.50;99.90
19279;DHT22;9773;47.062;15.446;2023-03-03T02:00:59;6.50;99.90
19279;DHT22;9773;47.062;15.446;2023-03-03T02:03:26;6.40;99.90
19279;DHT22;9773;47.062;15.446;2023-03-03T02:05:56;6.40;99.90
19279;DHT22;9773;47.062;15.446;2023-03-03T02:08:25;6.30;99.90
19279;DHT22;9773;47.062;15.446;2023-03-03T02:10:53;6.30;99.90
19279;DHT22;9773;47.062;15.446;2023-03-03T02:13:20;6.30;99.90
19279;DHT22;9773;47.062;15.446;2023-03-03T02:15:46;6.30;99.90
19279;DHT22;9773;47.062;15.446;2023-03-03T02:18:14;6.30;99.90
19279;DHT22;9773;47.062;15.446;2023-03-03T02:20:56;6.30;99.90
19279;DHT22;9773;47.062;15.446;2023-03-03T02:26:14;6.20;99.90
19279;DHT22;9773;47.062;15.446;2023-03-03T02:28:40;6.30;99.90
19279;DHT22;9773;47.062;15.446;2023-03-03T02:31:10;6.20;99.90
19279;DHT22;9773;47.062;15.446;2023-03-03T02:33:43;6.20;99.90
19279;DHT22;9773;47.062;15.446;2023-03-03T02:36:14;6.10;99.90
19279;DHT22;9773;47.062;15.446;2023-03-03T02:42:00;6.20;99.90
19279;DHT22;9773;47.062;15.446;2023-03-03T02:44:28;6.10;99.90
19279;DHT22;9773;47.062;15.446;2023-03-03T02:46:55;6.20;99.90
19279;DHT22;9773;47.062;15.446;2023-03-03T02:49:24;6.10;99.90
19279;DHT22;9773;47.062;15.446;2023-03-03T02:51:50;6.00;99.90
19279;DHT22;9773;47.062;15.446;2023-03-03T02:54:19;5.90;99.90
19279;DHT22;9773;47.062;15.446;2023-03-03T02:56:45;6.00;99.90
19279;DHT22;9773;47.062;15.446;2023-03-03T02:59:11;5.90;99.90
19279;DHT22;9773;47.062;15.446;2023-03-03T03:01:38;5.90;99.90
19279;DHT22;9773;47.062;15.446;2023-03-03T03:04:15;5.90;99.90
19279;DHT22;9773;47.062;15.446;2023-03-03T03:06:41;5.80;99.90
19279;DHT22;9773;47.062;15.446;2023-03-03T03:09:08;5.80;99.90
19279;DHT22;9773;47.062;15.446;2023-03-03T03:11:35;6.00;99.90
19279;DHT22;9773;47.062;15.446;2023-03-03T03:14:02;6.00;99.90
19279;DHT22;9773;47.062;15.446;2023-03-03T03:16:28;5.90;99.90
19279;DHT22;9773;47.062;15.446;2023-03-03T03:18:54;6.00;99.90
19279;DHT22;9773;47.062;15.446;2023-03-03T03:21:20;5.90;99.90
19279;DHT22;9773;47.062;15.446;2023-03-03T03:23:45;5.90;99.90
19279;DHT22;9773;47.062;15.446;2023-03-03T03:26:11;5.80;99.90
19279;DHT22;9773;47.062;15.446;2023-03-03T03:28:37;5.90;99.90
19279;DHT22;9773;47.062;15.446;2023-03-03T03:31:04;5.80;99.90
19279;DHT22;9773;47.062;15.446;2023-03-03T03:33:30;5.80;99.90
19279;DHT22;9773;47.062;15.446;2023-03-03T03:35:57;5.90;99.90
19279;DHT22;9773;47.062;15.446;2023-03-03T03:38:23;5.80;99.90
19279;DHT22;9773;47.062;15.446;2023-03-03T03:40:50;5.70;99.90
19279;DHT22;9773;47.062;15.446;2023-03-03T03:43:15;5.70;99.90
19279;DHT22;9773;47.062;15.446;2023-03-03T03:45:42;5.60;99.90
19279;DHT22;9773;47.062;15.446;2023-03-03T03:48:08;5.70;99.90
19279;DHT22;9773;47.062;15.446;2023-03-03T03:50:34;5.70;99.90
19279;DHT22;9773;47.062;15.446;2023-03-03T03:53:00;5.80;99.90
19279;DHT22;9773;47.062;15.446;2023-03-03T03:55:26;5.80;99.90
19279;DHT22;9773;47.062;15.446;2023-03-03T03:57:52;5.90;99.90
19279;DHT22;9773;47.062;15.446;2023-03-03T04:00:17;5.80;99.90
19279;DHT22;9773;47.062;15.446;2023-03-03T04:02:43;5.80;99.90
19279;DHT22;9773;47.062;15.446;2023-03-03T04:05:09;5.70;99.90
19279;DHT22;9773;47.062;15.446;2023-03-03T04:07:35;5.60;99.90
19279;DHT22;9773;47.062;15.446;2023-03-03T04:10:00;5.60;99.90
19279;DHT22;9773;47.062;15.446;2023-03-03T04:12:26;5.60;99.90
19279;DHT22;9773;47.062;15.446;2023-03-03T04:14:52;5.50;99.90
19279;DHT22;9773;47.062;15.446;2023-03-03T04:17:19;5.60;99.90
19279;DHT22;9773;47.062;15.446;2023-03-03T04:19:46;5.50;99.90
19279;DHT22;9773;47.062;15.446;2023-03-03T04:22:12;5.40;99.90
19279;DHT22;9773;47.062;15.446;2023-03-03T04:24:39;5.40;99.90
19279;DHT22;9773;47.062;15.446;2023-03-03T04:27:06;5.40;99.90
19279;DHT22;9773;47.062;15.446;2023-03-03T04:29:34;5.50;99.90
19279;DHT22;9773;47.062;15.446;2023-03-03T04:32:00;5.50;99.90
19279;DHT22;9773;47.062;15.446;2023-03-03T04:34:26;5.50;99.90
19279;DHT22;9773;47.062;15.446;2023-03-03T04:36:51;5.50;99.90
19279;DHT22;9773;47.062;15.446;2023-03-03T04:39:18;5.50;99.90
19279;DHT22;9773;47.062;15.446;2023-03-03T04:41:43;5.50;99.90
19279;DHT22;9773;47.062;15.446;2023-03-03T04:44:09;5.40;99.90
19279;DHT22;9773;47.062;15.446;2023-03-03T04:46:35;5.40;99.90
19279;DHT22;9773;47.062;15.446;2023-03-03T04:49:00;5.30;99.90
19279;DHT22;9773;47.062;15.446;2023-03-03T04:51:26;5.30;99.90
19279;DHT22;9773;47.062;15.446;2023-03-03T04:53:52;5.40;99.90
19279;DHT22;9773;47.062;15.446;2023-03-03T04:56:18;5.50;99.90
19279;DHT22;9773;47.062;15.446;2023-03-03T04:58:43;5.40;99.90
19279;DHT22;9773;47.062;15.446;2023-03-03T05:01:12;5.40;99.90
19279;DHT22;9773;47.062;15.446;2023-03-03T05:03:39;5.50;99.90
19279;DHT22;9773;47.062;15.446;2023-03-03T05:06:06;5.50;99.90
19279;DHT22;9773;47.062;15.446;2023-03-03T05:08:31;5.50;99.90
19279;DHT22;9773;47.062;15.446;2023-03-03T05:10:57;5.50;99.90
19279;DHT22;9773;47.062;15.446;2023-03-03T05:13:24;5.50;99.90
19279;DHT22;9773;47.062;15.446;2023-03-03T05:15:52;5.50;99.90
19279;DHT22;9773;47.062;15.446;2023-03-03T05:18:21;5.60;99.90
19279;DHT22;9773;47.062;15.446;2023-03-03T05:20:48;5.50;99.90
19279;DHT22;9773;47.062;15.446;2023-03-03T05:23:14;5.50;99.90
19279;DHT22;9773;47.062;15.446;2023-03-03T05:25:43;5.60;99.90
19279;DHT22;9773;47.062;15.446;2023-03-03T05:28:10;5.60;99.90
19279;DHT22;9773;47.062;15.446;2023-03-03T05:30:36;5.60;99.90
19279;DHT22;9773;47.062;15.446;2023-03-03T05:33:02;5.60;99.90
19279;DHT22;9773;47.062;15.446;2023-03-03T05:35:28;5.60;99.90
19279;DHT22;9773;47.062;15.446;2023-03-03T05:37:54;5.60;99.90
19279;DHT22;9773;47.062;15.446;2023-03-03T05:40:23;5.60;99.90
19279;DHT22;9773;47.062;15.446;2023-03-03T05:42:48;5.70;99.90
19279;DHT22;9773;47.062;15.446;2023-03-03T05:45:14;5.70;99.90
19279;DHT22;9773;47.062;15.446;2023-03-03T05:47:40;5.70;99.90
19279;DHT22;9773;47.062;15.446;2023-03-03T05:50:06;5.70;99.90
19279;DHT22;9773;47.062;15.446;2023-03-03T05:52:32;5.70;99.90
19279;DHT22;9773;47.062;15.446;2023-03-03T05:54:58;5.70;99.90
19279;DHT22;9773;47.062;15.446;2023-03-03T05:57:24;5.70;99.90
19279;DHT22;9773;47.062;15.446;2023-03-03T05:59:49;5.70;99.90
19279;DHT22;9773;47.062;15.446;2023-03-03T06:02:15;5.70;99.90
19279;DHT22;9773;47.062;15.446;2023-03-03T06:04:41;5.60;99.90
19279;DHT22;9773;47.062;15.446;2023-03-03T06:07:06;5.70;99.90
19279;DHT22;9773;47.062;15.446;2023-03-03T06:09:32;5.70;99.90
19279;DHT22;9773;47.062;15.446;2023-03-03T06:11:58;5.80;99.90
19279;DHT22;9773;47.062;15.446;2023-03-03T06:14:24;5.80;99.90
19279;DHT22;9773;47.062;15.446;2023-03-03T06:16:50;5.80;99.90
19279;DHT22;9773;47.062;15.446;2023-03-03T06:19:16;5.70;99.90
19279;DHT22;9773;47.062;15.446;2023-03-03T06:21:42;5.70;99.90
19279;DHT22;9773;47.062;15.446;2023-03-03T06:24:08;5.70;99.90
19279;DHT22;9773;47.062;15.446;2023-03-03T06:26:34;5.70;99.90
19279;DHT22;9773;47.062;15.446;2023-03-03T06:29:00;5.70;99.90
19279;DHT22;9773;47.062;15.446;2023-03-03T06:31:26;5.80;99.90
19279;DHT22;9773;47.062;15.446;2023-03-03T06:33:52;5.80;99.90
19279;DHT22;9773;47.062;15.446;2023-03-03T06:36:18;5.80;99.90
19279;DHT22;9773;47.062;15.446;2023-03-03T06:38:44;5.80;99.90
19279;DHT22;9773;47.062;15.446;2023-03-03T06:41:10;5.80;99.90
19279;DHT22;9773;47.062;15.446;2023-03-03T06:43:36;5.80;99.90
19279;DHT22;9773;47.062;15.446;2023-03-03T06:46:03;6.00;99.90
19279;DHT22;9773;47.062;15.446;2023-03-03T06:48:30;6.10;99.90
19279;DHT22;9773;47.062;15.446;2023-03-03T06:51:01;6.10;99.90
19279;DHT22;9773;47.062;15.446;2023-03-03T06:53:27;6.20;99.90
19279;DHT22;9773;47.062;15.446;2023-03-03T06:55:55;6.20;99.90
19279;DHT22;9773;47.062;15.446;2023-03-03T06:58:22;6.20;99.90
19279;DHT22;9773;47.062;15.446;2023-03-03T07:00:58;6.30;99.90
19279;DHT22;9773;47.062;15.446;2023-03-03T07:03:27;6.30;99.90
19279;DHT22;9773;47.062;15.446;2023-03-03T07:05:55;6.40;99.90
19279;DHT22;9773;47.062;15.446;2023-03-03T07:08:22;6.40;99.90
19279;DHT22;9773;47.062;15.446;2023-03-03T07:10:49;6.50;99.90
19279;DHT22;9773;47.062;15.446;2023-03-03T07:13:27;6.50;99.90
19279;DHT22;9773;47.062;15.446;2023-03-03T07:15:55;6.60;99.90
19279;DHT22;9773;47.062;15.446;2023-03-03T07:18:38;6.60;99.90
19279;DHT22;9773;47.062;15.446;2023-03-03T07:21:17;6.60;99.90
19279;DHT22;9773;47.062;15.446;2023-03-03T07:23:44;6.70;99.90
19279;DHT22;9773;47.062;15.446;2023-03-03T07:26:13;6.60;99.90
19279;DHT22;9773;47.062;15.446;2023-03-03T07:28:41;6.70;99.90
19279;DHT22;9773;47.062;15.446;2023-03-03T07:31:35;6.80;99.90
19279;DHT22;9773;47.062;15.446;2023-03-03T07:34:13;6.90;99.90
19279;DHT22;9773;47.062;15.446;2023-03-03T07:36:40;6.90;99.90
19279;DHT22;9773;47.062;15.446;2023-03-03T07:41:49;6.90;99.90
19279;DHT22;9773;47.062;15.446;2023-03-03T07:44:35;7.10;99.90
19279;DHT22;9773;47.062;15.446;2023-03-03T07:47:35;7.30;99.90
19279;DHT22;9773;47.062;15.446;2023-03-03T07:50:14;7.40;99.90
19279;DHT22;9773;47.062;15.446;2023-03-03T07:52:57;7.50;99.90
19279;DHT22;9773;47.062;15.446;2023-03-03T07:55:36;7.60;99.90
19279;DHT22;9773;47.062;15.446;2023-03-03T08:03:18;7.80;99.90
19279;DHT22;9773;47.062;15.446;2023-03-03T08:05:48;7.80;99.90
19279;DHT22;9773;47.062;15.446;2023-03-03T08:08:34;7.90;99.90
19279;DHT22;9773;47.062;15.446;2023-03-03T08:11:02;7.90;99.90
19279;DHT22;9773;47.062;15.446;2023-03-03T08:18:58;7.80;99.90
19279;DHT22;9773;47.062;15.446;2023-03-03T08:21:24;7.90;99.90
19279;DHT22;9773;47.062;15.446;2023-03-03T08:23:50;8.20;99.90
19279;DHT22;9773;47.062;15.446;2023-03-03T08:26:20;8.30;99.90
19279;DHT22;9773;47.062;15.446;2023-03-03T08:28:46;8.50;99.90
19279;DHT22;9773;47.062;15.446;2023-03-03T08:31:13;8.60;99.90
19279;DHT22;9773;47.062;15.446;2023-03-03T08:33:39;8.60;99.90
19279;DHT22;9773;47.062;15.446;2023-03-03T08:36:06;8.70;99.90
19279;DHT22;9773;47.062;15.446;2023-03-03T08:38:32;8.80;99.90
19279;DHT22;9773;47.062;15.446;2023-03-03T08:40:58;8.90;99.90
19279;DHT22;9773;47.062;15.446;2023-03-03T08:43:24;8.90;99.90
19279;DHT22;9773;47.062;15.446;2023-03-03T08:45:57;8.90;99.90
19279;DHT22;9773;47.062;15.446;2023-03-03T08:48:23;8.90;99.90
19279;DHT22;9773;47.062;15.446;2023-03-03T08:50:49;8.90;99.90
19279;DHT22;9773;47.062;15.446;2023-03-03T08:53:16;9.00;99.90
19279;DHT22;9773;47.062;15.446;2023-03-03T08:55:42;9.10;99.90
19279;DHT22;9773;47.062;15.446;2023-03-03T08:58:08;9.10;99.90
19279;DHT22;9773;47.062;15.446;2023-03-03T09:00:35;9.10;99.90
19279;DHT22;9773;47.062;15.446;2023-03-03T09:03:01;9.10;99.90
19279;DHT22;9773;47.062;15.446;2023-03-03T09:05:27;9.10;99.90
19279;DHT22;9773;47.062;15.446;2023-03-03T09:07:54;9.20;99.90
19279;DHT22;9773;47.062;15.446;2023-03-03T09:10:23;9.20;99.90
19279;DHT22;9773;47.062;15.446;2023-03-03T09:12:52;9.20;99.90
19279;DHT22;9773;47.062;15.446;2023-03-03T09:15:30;9.20;99.90
19279;DHT22;9773;47.062;15.446;2023-03-03T09:20:40;9.20;99.90
19279;DHT22;9773;47.062;15.446;2023-03-03T09:23:35;9.20;99.90
19279;DHT22;9773;47.062;15.446;2023-03-03T09:26:30;9.20;99.90
19279;DHT22;9773;47.062;15.446;2023-03-03T09:29:14;9.20;99.90
19279;DHT22;9773;47.062;15.446;2023-03-03T09:31:49;9.20;99.90
19279;DHT22;9773;47.062;15.446;2023-03-03T09:36:48;9.10;99.90
19279;DHT22;9773;47.062;15.446;2023-03-03T09:47:34;9.00;99.90
19279;DHT22;9773;47.062;15.446;2023-03-03T09:50:29;9.00;99.90
19279;DHT22;9773;47.062;15.446;2023-03-03T09:53:17;9.10;99.90
19279;DHT22;9773;47.062;15.446;2023-03-03T10:26:20;9.80;99.90
19279;DHT22;9773;47.062;15.446;2023-03-03T10:29:04;9.90;99.90
19279;DHT22;9773;47.062;15.446;2023-03-03T10:31:47;10.00;99.90
19279;DHT22;9773;47.062;15.446;2023-03-03T10:45:37;10.60;99.90
19279;DHT22;9773;47.062;15.446;2023-03-03T10:48:23;10.80;99.90
19279;DHT22;9773;47.062;15.446;2023-03-03T10:59:09;11.20;99.90
19279;DHT22;9773;47.062;15.446;2023-03-03T11:13:02;12.10;99.90
19279;DHT22;9773;47.062;15.446;2023-03-03T11:15:47;12.20;99.90
19279;DHT22;9773;47.062;15.446;2023-03-03T11:21:08;12.40;99.40
19279;DHT22;9773;47.062;15.446;2023-03-03T11:27:11;12.50;99.40
19279;DHT22;9773;47.062;15.446;2023-03-03T11:30:01;12.50;99.20
19279;DHT22;9773;47.062;15.446;2023-03-03T11:33:00;12.50;99.00
19279;DHT22;9773;47.062;15.446;2023-03-03T11:41:25;12.70;98.00
19279;DHT22;9773;47.062;15.446;2023-03-03T11:44:08;12.90;97.80
19279;DHT22;9773;47.062;15.446;2023-03-03T11:49:36;13.00;96.90
19279;DHT22;9773;47.062;15.446;2023-03-03T12:02:57;12.40;98.60
19279;DHT22;9773;47.062;15.446;2023-03-03T12:11:36;12.40;98.20
19279;DHT22;9773;47.062;15.446;2023-03-03T12:17:11;12.50;98.10
19279;DHT22;9773;47.062;15.446;2023-03-03T12:22:33;12.30;98.20
19279;DHT22;9773;47.062;15.446;2023-03-03T12:38:39;13.00;98.10
19279;DHT22;9773;47.062;15.446;2023-03-03T12:44:05;13.10;97.90
19279;DHT22;9773;47.062;15.446;2023-03-03T12:46:35;13.10;97.80
19279;DHT22;9773;47.062;15.446;2023-03-03T12:49:05;13.10;98.00
19279;DHT22;9773;47.062;15.446;2023-03-03T12:59:35;13.40;97.70
19279;DHT22;9773;47.062;15.446;2023-03-03T13:04:58;13.20;98.00
19279;DHT22;9773;47.062;15.446;2023-03-03T13:08:14;13.10;97.80
19279;DHT22;9773;47.062;15.446;2023-03-03T13:11:00;13.10;97.80
19279;DHT22;9773;47.062;15.446;2023-03-03T13:13:27;13.00;98.00
19279;DHT22;9773;47.062;15.446;2023-03-03T13:16:05;12.90;98.20
19279;DHT22;9773;47.062;15.446;2023-03-03T13:21:17;12.90;97.60
19279;DHT22;9773;47.062;15.446;2023-03-03T13:26:44;12.80;97.60
19279;DHT22;9773;47.062;15.446;2023-03-03T13:29:19;12.70;98.00
19279;DHT22;9773;47.062;15.446;2023-03-03T13:31:59;12.80;97.60
19279;DHT22;9773;47.062;15.446;2023-03-03T13:34:39;12.90;97.20
19279;DHT22;9773;47.062;15.446;2023-03-03T13:37:40;12.90;97.10
19279;DHT22;9773;47.062;15.446;2023-03-03T13:49:40;13.10;96.60
19279;DHT22;9773;47.062;15.446;2023-03-03T13:57:14;13.30;96.90
19279;DHT22;9773;47.062;15.446;2023-03-03T14:06:18;13.10;96.70
19279;DHT22;9773;47.062;15.446;2023-03-03T14:19:27;12.70;96.70
19279;DHT22;9773;47.062;15.446;2023-03-03T14:22:05;12.70;96.70
19279;DHT22;9773;47.062;15.446;2023-03-03T14:24:58;12.80;97.20
19279;DHT22;9773;47.062;15.446;2023-03-03T14:27:26;12.80;96.60
19279;DHT22;9773;47.062;15.446;2023-03-03T14:29:52;12.70;96.40
19279;DHT22;9773;47.062;15.446;2023-03-03T14:32:26;12.70;96.30
19279;DHT22;9773;47.062;15.446;2023-03-03T14:34:57;12.70;96.50
19279;DHT22;9773;47.062;15.446;2023-03-03T14:37:26;12.60;96.40
19279;DHT22;9773;47.062;15.446;2023-03-03T14:40:21;12.60;96.50
19279;DHT22;9773;47.062;15.446;2023-03-03T14:42:55;12.50;96.20
19279;DHT22;9773;47.062;15.446;2023-03-03T14:45:39;12.40;96.00
19279;DHT22;9773;47.062;15.446;2023-03-03T14:48:15;12.30;96.60
19279;DHT22;9773;47.062;15.446;2023-03-03T14:50:58;12.30;96.70
19279;DHT22;9773;47.062;15.446;2023-03-03T14:53:41;12.30;97.00
19279;DHT22;9773;47.062;15.446;2023-03-03T14:56:29;12.30;97.10
19279;DHT22;9773;47.062;15.446;2023-03-03T14:59:19;12.00;97.40
19279;DHT22;9773;47.062;15.446;2023-03-03T15:01:46;11.80;98.10
19279;DHT22;9773;47.062;15.446;2023-03-03T15:06:47;11.50;98.70
19279;DHT22;9773;47.062;15.446;2023-03-03T15:12:00;11.20;98.40
19279;DHT22;9773;47.062;15.446;2023-03-03T15:14:34;11.10;98.40
19279;DHT22;9773;47.062;15.446;2023-03-03T15:19:49;11.10;98.70
19279;DHT22;9773;47.062;15.446;2023-03-03T15:22:45;11.10;98.60
19279;DHT22;9773;47.062;15.446;2023-03-03T15:25:32;11.10;98.60
19279;DHT22;9773;47.062;15.446;2023-03-03T15:28:44;11.00;99.00
19279;DHT22;9773;47.062;15.446;2023-03-03T15:34:20;11.10;99.00
19279;DHT22;9773;47.062;15.446;2023-03-03T15:39:39;11.10;99.00
19279;DHT22;9773;47.062;15.446;2023-03-03T15:42:10;11.10;99.00
19279;DHT22;9773;47.062;15.446;2023-03-03T15:45:24;11.10;99.10
19279;DHT22;9773;47.062;15.446;2023-03-03T15:50:42;10.90;99.40
19279;DHT22;9773;47.062;15.446;2023-03-03T15:59:11;10.60;99.80
19279;DHT22;9773;47.062;15.446;2023-03-03T16:04:36;10.60;99.90
19279;DHT22;9773;47.062;15.446;2023-03-03T16:07:25;10.70;99.90
19279;DHT22;9773;47.062;15.446;2023-03-03T16:10:53;10.70;99.90
19279;DHT22;9773;47.062;15.446;2023-03-03T16:15:57;10.60;99.90
19279;DHT22;9773;47.062;15.446;2023-03-03T16:21:42;10.50;99.90
19279;DHT22;9773;47.062;15.446;2023-03-03T16:24:53;10.40;99.90
19279;DHT22;9773;47.062;15.446;2023-03-03T16:32:57;10.40;99.90
19279;DHT22;9773;47.062;15.446;2023-03-03T16:36:00;10.40;99.90
19279;DHT22;9773;47.062;15.446;2023-03-03T16:38:43;10.20;99.90
19279;DHT22;9773;47.062;15.446;2023-03-03T16:49:58;9.90;99.90
19279;DHT22;9773;47.062;15.446;2023-03-03T16:52:36;9.90;99.90
19279;DHT22;9773;47.062;15.446;2023-03-03T16:55:19;9.90;99.90
19279;DHT22;9773;47.062;15.446;2023-03-03T17:07:02;9.90;99.90
19279;DHT22;9773;47.062;15.446;2023-03-03T17:09:43;9.80;99.90
19279;DHT22;9773;47.062;15.446;2023-03-03T17:15:50;9.70;99.90
19279;DHT22;9773;47.062;15.446;2023-03-03T17:29:11;9.50;99.90
19279;DHT22;9773;47.062;15.446;2023-03-03T17:43:13;9.20;99.90
19279;DHT22;9773;47.062;15.446;2023-03-03T17:45:40;9.10;99.90
19279;DHT22;9773;47.062;15.446;2023-03-03T17:54:27;9.00;99.90
19279;DHT22;9773;47.062;15.446;2023-03-03T18:11:38;8.70;99.90
19279;DHT22;9773;47.062;15.446;2023-03-03T18:22:46;8.70;99.90
19279;DHT22;9773;47.062;15.446;2023-03-03T18:30:56;8.60;99.90
19279;DHT22;9773;47.062;15.446;2023-03-03T18:38:58;8.70;99.90
19279;DHT22;9773;47.062;15.446;2023-03-03T18:41:28;8.60;99.90
19279;DHT22;9773;47.062;15.446;2023-03-03T18:44:28;8.50;99.90
19279;DHT22;9773;47.062;15.446;2023-03-03T18:46:57;8.60;99.90
19279;DHT22;9773;47.062;15.446;2023-03-03T18:57:27;8.50;99.90
19279;DHT22;9773;47.062;15.446;2023-03-03T19:02:57;8.40;99.90
19279;DHT22;9773;47.062;15.446;2023-03-03T19:05:45;8.30;99.90
19279;DHT22;9773;47.062;15.446;2023-03-03T19:08:22;8.30;99.90
19279;DHT22;9773;47.062;15.446;2023-03-03T19:11:00;8.30;99.90
19279;DHT22;9773;47.062;15.446;2023-03-03T19:13:35;8.20;99.90
19279;DHT22;9773;47.062;15.446;2023-03-03T19:16:26;8.10;99.90
19279;DHT22;9773;47.062;15.446;2023-03-03T19:19:00;8.10;99.90
19279;DHT22;9773;47.062;15.446;2023-03-03T19:21:38;8.10;99.90
19279;DHT22;9773;47.062;15.446;2023-03-03T19:24:28;8.00;99.90
19279;DHT22;9773;47.062;15.446;2023-03-03T19:29:47;7.80;99.90
19279;DHT22;9773;47.062;15.446;2023-03-03T19:32:47;7.70;99.90
19279;DHT22;9773;47.062;15.446;2023-03-03T19:36:04;7.60;99.90
19279;DHT22;9773;47.062;15.446;2023-03-03T19:46:44;7.50;99.90
19279;DHT22;9773;47.062;15.446;2023-03-03T19:54:52;7.50;99.90
19279;DHT22;9773;47.062;15.446;2023-03-03T20:00:18;7.40;99.90
19279;DHT22;9773;47.062;15.446;2023-03-03T20:03:23;7.50;99.90
19279;DHT22;9773;47.062;15.446;2023-03-03T20:08:49;7.60;99.90
19279;DHT22;9773;47.062;15.446;2023-03-03T20:14:08;7.40;99.90
19279;DHT22;9773;47.062;15.446;2023-03-03T20:16:43;7.30;99.90
19279;DHT22;9773;47.062;15.446;2023-03-03T20:28:04;7.20;99.90
19279;DHT22;9773;47.062;15.446;2023-03-03T20:41:11;7.00;99.90
19279;DHT22;9773;47.062;15.446;2023-03-03T20:52:30;6.80;99.90
19279;DHT22;9773;47.062;15.446;2023-03-03T20:57:56;6.60;99.90
19279;DHT22;9773;47.062;15.446;2023-03-03T21:05:59;6.60;99.90
19279;DHT22;9773;47.062;15.446;2023-03-03T21:08:43;6.50;99.90
19279;DHT22;9773;47.062;15.446;2023-03-03T21:11:13;6.50;99.90
19279;DHT22;9773;47.062;15.446;2023-03-03T21:13:42;6.40;99.90
19279;DHT22;9773;47.062;15.446;2023-03-03T21:19:05;6.30;99.90
19279;DHT22;9773;47.062;15.446;2023-03-03T21:21:39;6.30;99.90
19279;DHT22;9773;47.062;15.446;2023-03-03T21:24:09;6.30;99.90
19279;DHT22;9773;47.062;15.446;2023-03-03T21:29:22;6.20;99.90
19279;DHT22;9773;47.062;15.446;2023-03-03T21:31:55;6.30;99.90
19279;DHT22;9773;47.062;15.446;2023-03-03T21:34:38;6.30;99.90
19279;DHT22;9773;47.062;15.446;2023-03-03T21:37:07;6.20;99.90
19279;DHT22;9773;47.062;15.446;2023-03-03T21:39:37;6.20;99.90
19279;DHT22;9773;47.062;15.446;2023-03-03T21:42:06;6.10;99.90
19279;DHT22;9773;47.062;15.446;2023-03-03T21:44:46;6.10;99.90
19279;DHT22;9773;47.062;15.446;2023-03-03T21:47:21;6.00;99.90
19279;DHT22;9773;47.062;15.446;2023-03-03T21:49:49;5.90;99.90
19279;DHT22;9773;47.062;15.446;2023-03-03T21:52:17;6.00;99.90
19279;DHT22;9773;47.062;15.446;2023-03-03T21:54:45;5.90;99.90
19279;DHT22;9773;47.062;15.446;2023-03-03T21:57:11;5.90;99.90
19279;DHT22;9773;47.062;15.446;2023-03-03T21:59:37;5.80;99.90
19279;DHT22;9773;47.062;15.446;2023-03-03T22:02:03;5.70;99.90
19279;DHT22;9773;47.062;15.446;2023-03-03T22:04:29;5.60;99.90
19279;DHT22;9773;47.062;15.446;2023-03-03T22:06:55;5.50;99.90
19279;DHT22;9773;47.062;15.446;2023-03-03T22:09:21;5.40;99.90
19279;DHT22;9773;47.062;15.446;2023-03-03T22:11:47;5.40;99.90
19279;DHT22;9773;47.062;15.446;2023-03-03T22:14:12;5.50;99.90
19279;DHT22;9773;47.062;15.446;2023-03-03T22:16:38;5.40;99.90
19279;DHT22;9773;47.062;15.446;2023-03-03T22:19:05;5.50;99.90
19279;DHT22;9773;47.062;15.446;2023-03-03T22:21:33;5.40;99.90
19279;DHT22;9773;47.062;15.446;2023-03-03T22:23:59;5.30;99.90
19279;DHT22;9773;47.062;15.446;2023-03-03T22:26:25;5.40;99.90
19279;DHT22;9773;47.062;15.446;2023-03-03T22:28:51;5.40;99.90
19279;DHT22;9773;47.062;15.446;2023-03-03T22:31:17;5.40;99.90
19279;DHT22;9773;47.062;15.446;2023-03-03T22:33:44;5.40;99.90
19279;DHT22;9773;47.062;15.446;2023-03-03T22:36:10;5.30;99.90
19279;DHT22;9773;47.062;15.446;2023-03-03T22:38:36;5.20;99.90
19279;DHT22;9773;47.062;15.446;2023-03-03T22:41:02;5.20;99.90
19279;DHT22;9773;47.062;15.446;2023-03-03T22:43:28;5.10;99.90
19279;DHT22;9773;47.062;15.446;2023-03-03T22:45:55;5.10;99.90
19279;DHT22;9773;47.062;15.446;2023-03-03T22:48:21;5.00;99.90
19279;DHT22;9773;47.062;15.446;2023-03-03T22:50:49;5.00;99.90
19279;DHT22;9773;47.062;15.446;2023-03-03T22:53:15;4.80;99.90